createdAt,value
2023-02-05T00:02:11.299Z,103584.62
2023-02-05T00:04:39.747Z,103587.60
2023-02-05T00:07:07.977Z,103597.19
2023-02-05T00:09:37.513Z,103591.73
2023-02-05T00:12:05.416Z,103583.81
2023-02-05T00:14:33.135Z,103592.77
2023-02-05T00:17:00.857Z,103587.57
2023-02-05T00:19:28.598Z,103582.80
2023-02-05T00:21:56.304Z,103583.26
2023-02-05T00:24:23.951Z,103578.87
2023-02-05T00:26:51.630Z,103578.31
2023-02-05T00:29:19.317Z,103582.80
2023-02-05T00:31:50.553Z,103584.07
2023-02-05T00:34:18.583Z,103583.84
2023-02-05T00:36:46.353Z,103585.58
2023-02-05T00:39:15.324Z,103574.16
2023-02-05T00:41:43.050Z,103584.30
2023-02-05T00:44:10.762Z,103589.50
2023-02-05T00:46:38.497Z,103586.98
2023-02-05T00:49:06.404Z,103580.90
2023-02-05T00:51:34.071Z,103582.80
2023-02-05T00:54:01.747Z,103577.50
2023-02-05T00:56:29.424Z,103583.16
2023-02-05T00:58:58.685Z,103581.16
2023-02-05T01:01:26.588Z,103580.90
2023-02-05T01:03:54.356Z,103569.16
2023-02-05T01:06:22.260Z,103576.65
2023-02-05T01:08:49.908Z,103567.85
2023-02-05T01:11:17.719Z,103572.79
2023-02-05T01:13:45.592Z,103573.97
2023-02-05T01:16:13.340Z,103577.59
2023-02-05T01:18:41.694Z,103580.84
2023-02-05T01:21:09.414Z,103579.16
2023-02-05T01:23:37.147Z,103574.33
2023-02-05T01:26:04.848Z,103579.98
2023-02-05T01:28:32.558Z,103584.01
2023-02-05T01:31:00.381Z,103585.22
2023-02-05T01:33:28.212Z,103578.45
2023-02-05T01:35:56.017Z,103582.60
2023-02-05T01:38:23.798Z,103579.40
2023-02-05T01:40:51.525Z,103575.08
2023-02-05T01:43:20.191Z,103580.87
2023-02-05T01:46:03.082Z,103580.15
2023-02-05T01:48:37.016Z,103586.27
2023-02-05T01:51:12.921Z,103584.17
2023-02-05T01:53:41.438Z,103573.67
2023-02-05T01:56:18.523Z,103569.20
2023-02-05T01:58:55.878Z,103568.08
2023-02-05T02:01:24.777Z,103562.03
2023-02-05T02:03:54.633Z,103562.85
2023-02-05T02:06:22.383Z,103558.73
2023-02-05T02:08:50.168Z,103555.98
2023-02-05T02:11:22.671Z,103543.98
2023-02-05T02:13:54.169Z,103543.69
2023-02-05T02:16:22.391Z,103545.75
2023-02-05T02:18:50.676Z,103547.91
2023-02-05T02:21:40.187Z,103537.90
2023-02-05T02:24:35.739Z,103544.44
2023-02-05T02:27:27.977Z,103536.07
2023-02-05T02:29:59.842Z,103535.74
2023-02-05T02:32:38.421Z,103521.58
2023-02-05T02:35:28.574Z,103523.55
2023-02-05T02:38:13.621Z,103525.54
2023-02-05T02:40:50.996Z,103519.00
2023-02-05T02:43:26.648Z,103527.50
2023-02-05T02:46:01.837Z,103525.05
2023-02-05T02:48:32.006Z,103512.00
2023-02-05T02:51:01.101Z,103513.60
2023-02-05T02:53:35.556Z,103500.95
2023-02-05T02:56:05.872Z,103500.42
2023-02-05T02:58:43.932Z,103500.75
2023-02-05T03:01:13.217Z,103500.23
2023-02-05T03:03:49.212Z,103501.30
2023-02-05T03:06:18.402Z,103509.29
2023-02-05T03:08:57.172Z,103501.41
2023-02-05T03:11:27.358Z,103494.63
2023-02-05T03:13:57.505Z,103492.94
2023-02-05T03:16:27.538Z,103488.39
2023-02-05T03:18:57.304Z,103477.08
2023-02-05T03:21:34.458Z,103482.38
2023-02-05T03:24:02.263Z,103484.66
2023-02-05T03:26:33.479Z,103483.75
2023-02-05T03:29:10.021Z,103487.34
2023-02-05T03:32:13.067Z,103487.18
2023-02-05T03:34:59.483Z,103473.09
2023-02-05T03:37:45.634Z,103479.92
2023-02-05T03:40:40.880Z,103474.56
2023-02-05T03:43:31.283Z,103465.34
2023-02-05T03:46:14.775Z,103469.63
2023-02-05T03:48:45.306Z,103474.30
2023-02-05T03:51:30.830Z,103468.22
2023-02-05T03:54:10.372Z,103463.44
2023-02-05T03:56:45.629Z,103461.97
2023-02-05T03:59:15.555Z,103470.24
2023-02-05T04:01:45.716Z,103469.88
2023-02-05T04:04:13.870Z,103469.59
2023-02-05T04:06:41.798Z,103471.16
2023-02-05T04:09:11.717Z,103464.52
2023-02-05T04:11:39.761Z,103470.47
2023-02-05T04:14:07.464Z,103468.28
2023-02-05T04:16:35.241Z,103468.12
2023-02-05T04:19:02.891Z,103480.97
2023-02-05T04:21:30.583Z,103479.63
2023-02-05T04:23:58.297Z,103482.27
2023-02-05T04:26:26.249Z,103481.39
2023-02-05T04:28:53.943Z,103476.09
2023-02-05T04:31:21.652Z,103470.80
2023-02-05T04:33:49.325Z,103465.63
2023-02-05T04:36:16.975Z,103465.77
2023-02-05T04:38:44.690Z,103468.31
2023-02-05T04:41:12.388Z,103459.55
2023-02-05T04:43:40.110Z,103470.51
2023-02-05T04:46:11.872Z,103467.76
2023-02-05T04:48:40.576Z,103471.78
2023-02-05T04:51:10.182Z,103474.13
2023-02-05T04:53:38.546Z,103475.70
2023-02-05T04:56:17.942Z,103470.77
2023-02-05T04:58:46.000Z,103460.30
2023-02-05T05:01:16.203Z,103453.01
2023-02-05T05:03:44.288Z,103444.97
2023-02-05T05:06:12.967Z,103445.81
2023-02-05T05:08:41.434Z,103440.06
2023-02-05T05:11:12.481Z,103447.58
2023-02-05T05:13:40.638Z,103446.53
2023-02-05T05:16:09.345Z,103467.82
2023-02-05T05:18:37.511Z,103466.97
2023-02-05T05:21:06.689Z,103469.26
2023-02-05T05:23:35.404Z,103459.45
2023-02-05T05:26:09.293Z,103456.61
2023-02-05T05:28:37.835Z,103460.98
2023-02-05T05:31:21.002Z,103468.54
2023-02-05T05:33:49.289Z,103466.74
2023-02-05T05:36:17.846Z,103477.47
2023-02-05T05:38:46.166Z,103468.80
2023-02-05T05:41:50.644Z,103475.45
2023-02-05T05:44:18.279Z,103477.27
2023-02-05T05:46:45.930Z,103489.99
2023-02-05T05:49:13.571Z,103473.68
2023-02-05T05:51:41.280Z,103479.70
2023-02-05T05:54:08.906Z,103474.30
2023-02-05T05:56:37.327Z,103478.94
2023-02-05T05:59:05.359Z,103490.95
2023-02-05T06:01:33.112Z,103481.75
2023-02-05T06:04:02.927Z,103477.47
2023-02-05T06:06:31.734Z,103490.16
2023-02-05T06:08:59.341Z,103492.25
2023-02-05T06:11:27.076Z,103489.80
2023-02-05T06:13:54.731Z,103478.88
2023-02-05T06:16:22.460Z,103481.33
2023-02-05T06:18:50.110Z,103490.16
2023-02-05T06:21:18.007Z,103499.09
2023-02-05T06:23:45.732Z,103502.62
2023-02-05T06:26:13.420Z,103514.98
2023-02-05T06:28:41.158Z,103520.99
2023-02-05T06:31:09.175Z,103511.34
2023-02-05T06:33:37.088Z,103510.76
2023-02-05T06:36:05.108Z,103513.27
2023-02-05T06:38:32.860Z,103515.59
2023-02-05T06:41:00.679Z,103512.59
2023-02-05T06:43:28.523Z,103507.98
2023-02-05T06:45:56.896Z,103508.60
2023-02-05T06:48:24.534Z,103510.01
2023-02-05T06:50:52.179Z,103514.75
2023-02-05T06:53:19.817Z,103512.62
2023-02-05T06:55:47.484Z,103505.10
2023-02-05T06:58:15.186Z,103509.74
2023-02-05T07:00:43.065Z,103509.35
2023-02-05T07:03:11.033Z,103511.09
2023-02-05T07:05:38.725Z,103507.98
2023-02-05T07:08:07.800Z,103498.76
2023-02-05T07:10:35.486Z,103520.27
2023-02-05T07:13:05.759Z,103522.37
2023-02-05T07:15:34.043Z,103512.69
2023-02-05T07:18:02.024Z,103520.83
2023-02-05T07:20:29.759Z,103524.00
2023-02-05T07:22:57.567Z,103522.10
2023-02-05T07:25:25.171Z,103522.73
2023-02-05T07:27:52.851Z,103513.51
2023-02-05T07:30:20.556Z,103520.86
2023-02-05T07:32:48.306Z,103530.15
2023-02-05T07:35:16.163Z,103520.86
2023-02-05T07:37:43.929Z,103524.75
2023-02-05T07:40:12.075Z,103519.20
2023-02-05T07:42:39.787Z,103527.83
2023-02-05T07:45:08.740Z,103534.40
2023-02-05T07:47:36.656Z,103538.55
2023-02-05T07:50:05.993Z,103540.12
2023-02-05T07:52:34.697Z,103540.84
2023-02-05T07:55:02.430Z,103555.75
2023-02-05T07:57:30.118Z,103562.52
2023-02-05T07:59:57.809Z,103560.89
2023-02-05T08:02:26.027Z,103565.34
2023-02-05T08:04:53.980Z,103558.14
2023-02-05T08:07:21.692Z,103549.24
2023-02-05T08:09:49.337Z,103550.09
2023-02-05T08:12:17.162Z,103548.23
2023-02-05T08:14:45.095Z,103543.20
2023-02-05T08:17:12.814Z,103541.98
2023-02-05T08:19:41.398Z,103540.81
2023-02-05T08:22:09.086Z,103539.01
2023-02-05T08:24:36.807Z,103538.20
2023-02-05T08:27:04.645Z,103536.20
2023-02-05T08:29:32.298Z,103536.62
2023-02-05T08:31:59.971Z,103531.85
2023-02-05T08:34:27.778Z,103540.52
2023-02-05T08:36:55.564Z,103529.33
2023-02-05T08:39:23.193Z,103533.59
2023-02-05T08:41:50.963Z,103519.20
2023-02-05T08:44:18.773Z,103512.55
2023-02-05T08:46:50.251Z,103516.84
2023-02-05T08:49:18.367Z,103509.05
2023-02-05T08:51:46.070Z,103510.89
2023-02-05T08:54:16.255Z,103509.88
2023-02-05T08:56:45.920Z,103499.12
2023-02-05T08:59:13.837Z,103496.04
2023-02-05T09:01:42.365Z,103491.30
2023-02-05T09:04:16.826Z,103490.65
2023-02-05T09:06:44.951Z,103502.98
2023-02-05T09:09:13.095Z,103496.63
2023-02-05T09:11:41.233Z,103503.27
2023-02-05T09:14:09.728Z,103504.97
2023-02-05T09:16:37.704Z,103488.42
2023-02-05T09:19:05.452Z,103475.97
2023-02-05T09:21:33.230Z,103473.64
2023-02-05T09:24:01.251Z,103482.70
2023-02-05T09:26:29.036Z,103475.45
2023-02-05T09:28:56.834Z,103470.60
2023-02-05T09:31:24.725Z,103471.32
2023-02-05T09:33:52.471Z,103472.86
2023-02-05T09:36:23.266Z,103468.41
2023-02-05T09:39:04.946Z,103473.61
2023-02-05T09:42:20.664Z,103464.65
2023-02-05T09:44:57.282Z,103452.52
2023-02-05T09:47:32.859Z,103447.32
2023-02-05T09:50:33.110Z,103436.49
2023-02-05T09:53:12.757Z,103433.69
2023-02-05T09:55:46.004Z,103422.70
2023-02-05T09:58:19.655Z,103414.20
2023-02-05T10:00:54.907Z,103407.62
2023-02-05T10:03:35.431Z,103407.98
2023-02-05T10:06:22.399Z,103401.54
2023-02-05T10:09:09.287Z,103398.20
2023-02-05T10:12:07.881Z,103385.22
2023-02-05T10:15:10.717Z,103376.75
2023-02-05T10:18:10.139Z,103367.43
2023-02-05T10:20:49.826Z,103372.73
2023-02-05T10:23:28.224Z,103382.41
2023-02-05T10:26:07.758Z,103383.66
2023-02-05T10:28:35.404Z,103374.63
2023-02-05T10:31:26.376Z,103378.71
2023-02-05T10:34:01.034Z,103379.14
2023-02-05T10:36:28.794Z,103370.64
2023-02-05T10:38:58.394Z,103365.80
2023-02-05T10:41:49.839Z,103363.38
2023-02-05T10:44:31.197Z,103364.95
2023-02-05T10:47:07.386Z,103368.22
2023-02-05T10:49:55.196Z,103373.09
2023-02-05T10:52:23.174Z,103376.30
2023-02-05T10:54:52.095Z,103375.54
2023-02-05T10:57:22.910Z,103369.88
2023-02-05T10:59:58.109Z,103363.77
2023-02-05T11:02:40.691Z,103363.77
2023-02-05T11:05:25.750Z,103353.60
2023-02-05T11:07:55.350Z,103350.30
2023-02-05T11:10:29.590Z,103340.48
2023-02-05T11:13:21.512Z,103350.66
2023-02-05T11:16:00.533Z,103354.19
2023-02-05T11:18:44.218Z,103340.36
2023-02-05T11:21:12.975Z,103343.62
2023-02-05T11:23:54.836Z,103344.84
2023-02-05T11:26:25.784Z,103351.70
2023-02-05T11:28:53.766Z,103354.48
2023-02-05T11:31:36.172Z,103339.41
2023-02-05T11:34:10.188Z,103340.98
2023-02-05T11:36:51.112Z,103331.17
2023-02-05T11:39:42.135Z,103322.27
2023-02-05T11:42:26.386Z,103329.63
2023-02-05T11:45:00.264Z,103328.42
2023-02-05T11:47:32.601Z,103337.35
2023-02-05T11:50:01.051Z,103336.14
2023-02-05T11:52:31.932Z,103326.13
2023-02-05T11:55:00.089Z,103328.62
2023-02-05T11:57:35.054Z,103329.83
2023-02-05T12:00:21.317Z,103321.62
2023-02-05T12:02:54.856Z,103334.30
2023-02-05T12:05:27.653Z,103338.33
2023-02-05T12:08:01.331Z,103335.42
2023-02-05T12:10:50.944Z,103330.61
2023-02-05T12:13:30.669Z,103336.70
2023-02-05T12:16:04.822Z,103348.01
2023-02-05T12:19:00.055Z,103337.84
2023-02-05T12:22:11.564Z,103331.27
2023-02-05T12:24:58.148Z,103329.96
2023-02-05T12:27:33.280Z,103320.61
2023-02-05T12:30:03.732Z,103315.70
2023-02-05T12:32:50.259Z,103313.64
2023-02-05T12:35:17.879Z,103327.08
2023-02-05T12:37:51.467Z,103318.55
2023-02-05T12:40:54.327Z,103314.75
2023-02-05T12:43:30.886Z,103314.66
2023-02-05T12:46:09.708Z,103299.98
2023-02-05T12:48:54.086Z,103313.61
2023-02-05T12:51:30.917Z,103309.52
2023-02-05T12:54:01.605Z,103307.04
2023-02-05T12:56:54.056Z,103300.46
2023-02-05T12:59:27.733Z,103291.96
2023-02-05T13:02:01.140Z,103281.76
2023-02-05T13:04:41.323Z,103274.40
2023-02-05T13:07:35.602Z,103272.80
2023-02-05T13:10:09.216Z,103271.20
2023-02-05T13:12:44.438Z,103263.94
2023-02-05T13:15:23.637Z,103264.76
2023-02-05T13:17:59.177Z,103260.80
2023-02-05T13:20:49.174Z,103252.72
2023-02-05T13:23:36.475Z,103249.48
2023-02-05T13:26:24.777Z,103253.15
2023-02-05T13:28:58.481Z,103246.67
2023-02-05T13:31:33.613Z,103241.02
2023-02-05T13:34:07.083Z,103239.02
2023-02-05T13:37:12.340Z,103236.60
2023-02-05T13:40:09.726Z,103231.76
2023-02-05T13:42:37.332Z,103224.80
2023-02-05T13:45:23.620Z,103218.71
2023-02-05T13:48:12.486Z,103202.07
2023-02-05T13:51:08.208Z,103195.63
2023-02-05T13:53:58.610Z,103202.13
2023-02-05T13:56:35.244Z,103200.92
2023-02-05T13:59:16.076Z,103200.14
2023-02-05T14:02:36.243Z,103186.77
2023-02-05T14:05:04.744Z,103185.98
2023-02-05T14:07:36.561Z,103193.66
2023-02-05T14:10:05.222Z,103187.98
2023-02-05T14:12:37.250Z,103177.34
2023-02-05T14:15:17.034Z,103175.68
2023-02-05T14:17:44.636Z,103174.83
2023-02-05T14:20:43.066Z,103171.98
2023-02-05T14:23:35.153Z,103172.37
2023-02-05T14:26:09.572Z,103175.26
2023-02-05T14:28:46.494Z,103167.96
2023-02-05T14:31:47.847Z,103173.62
2023-02-05T14:34:34.255Z,103163.16
2023-02-05T14:37:02.387Z,103159.49
2023-02-05T14:39:35.329Z,103144.94
2023-02-05T14:42:06.683Z,103145.73
2023-02-05T14:44:41.751Z,103153.34
2023-02-05T14:47:28.892Z,103156.06
2023-02-05T14:50:08.592Z,103148.77
2023-02-05T14:52:40.761Z,103150.34
2023-02-05T14:55:14.432Z,103145.50
2023-02-05T14:57:47.277Z,103137.39
2023-02-05T15:00:32.390Z,103138.92
2023-02-05T15:03:06.730Z,103151.02
2023-02-05T15:05:46.873Z,103138.08
2023-02-05T15:08:23.381Z,103142.52
2023-02-05T15:10:56.003Z,103144.98
2023-02-05T15:13:25.603Z,103137.29
2023-02-05T15:16:18.066Z,103137.71
2023-02-05T15:19:06.031Z,103126.83
2023-02-05T15:21:50.646Z,103139.80
2023-02-05T15:24:27.949Z,103138.20
2023-02-05T15:27:03.453Z,103133.23
2023-02-05T15:29:47.031Z,103134.41
2023-02-05T15:32:25.572Z,103135.13
2023-02-05T15:34:57.046Z,103132.29
2023-02-05T15:37:43.216Z,103133.92
2023-02-05T15:40:21.371Z,103136.77
2023-02-05T15:42:53.264Z,103138.70
2023-02-05T15:45:35.901Z,103137.09
2023-02-05T15:48:12.896Z,103146.41
2023-02-05T15:50:48.001Z,103131.08
2023-02-05T15:53:42.938Z,103137.95
2023-02-05T15:56:45.995Z,103138.80
2023-02-05T15:59:31.498Z,103132.74
2023-02-05T16:02:06.776Z,103140.43
2023-02-05T16:04:38.483Z,103138.80
2023-02-05T16:07:27.563Z,103140.73
2023-02-05T16:09:57.675Z,103139.16
2023-02-05T16:12:25.947Z,103142.00
2023-02-05T16:15:05.869Z,103139.58
2023-02-05T16:17:45.248Z,103137.95
2023-02-05T16:20:28.911Z,103140.00
2023-02-05T16:23:07.560Z,103143.63
2023-02-05T16:25:53.808Z,103144.78
2023-02-05T16:28:41.507Z,103150.08
2023-02-05T16:31:16.552Z,103152.95
2023-02-05T16:33:55.343Z,103143.30
2023-02-05T16:36:30.398Z,103154.26
2023-02-05T16:39:04.314Z,103153.09
2023-02-05T16:41:38.994Z,103153.97
2023-02-05T16:44:08.826Z,103151.87
2023-02-05T16:46:38.046Z,103155.14
2023-02-05T16:49:26.930Z,103164.86
2023-02-05T16:51:57.361Z,103164.04
2023-02-05T16:54:43.313Z,103173.72
2023-02-05T16:57:24.869Z,103170.52
2023-02-05T17:00:03.892Z,103168.06
2023-02-05T17:02:37.625Z,103170.52
2023-02-05T17:05:09.253Z,103176.17
2023-02-05T17:07:37.211Z,103181.44
2023-02-05T17:10:18.219Z,103178.20
2023-02-05T17:12:57.762Z,103187.52
2023-02-05T17:15:34.924Z,103185.06
2023-02-05T17:18:20.036Z,103182.65
2023-02-05T17:20:47.976Z,103188.37
2023-02-05T17:23:17.740Z,103193.24
2023-02-05T17:25:48.277Z,103194.88
2023-02-05T17:28:19.608Z,103200.59
2023-02-05T17:30:49.727Z,103188.89
2023-02-05T17:33:21.569Z,103200.70
2023-02-05T17:35:49.372Z,103196.70
2023-02-05T17:38:18.535Z,103200.40
2023-02-05T17:40:46.297Z,103194.41
2023-02-05T17:43:14.861Z,103205.80
2023-02-05T17:45:45.242Z,103198.44
2023-02-05T17:48:12.966Z,103192.78
2023-02-05T17:50:40.628Z,103192.78
2023-02-05T17:53:08.337Z,103192.72
2023-02-05T17:55:36.007Z,103204.49
2023-02-05T17:58:03.762Z,103192.72
2023-02-05T18:00:34.666Z,103197.98
2023-02-05T18:03:02.557Z,103195.10
2023-02-05T18:05:30.273Z,103191.38
2023-02-05T18:07:59.655Z,103205.17
2023-02-05T18:10:31.147Z,103203.18
2023-02-05T18:12:59.467Z,103205.63
2023-02-05T18:15:28.004Z,103209.79
2023-02-05T18:17:55.746Z,103198.05
2023-02-05T18:20:23.822Z,103209.36
2023-02-05T18:22:51.635Z,103208.22
2023-02-05T18:25:19.529Z,103207.01
2023-02-05T18:27:48.773Z,103208.64
2023-02-05T18:30:16.584Z,103207.37
2023-02-05T18:32:44.274Z,103208.64
2023-02-05T18:35:15.454Z,103212.73
2023-02-05T18:37:46.255Z,103209.46
2023-02-05T18:40:16.145Z,103209.46
2023-02-05T18:42:48.022Z,103207.86
2023-02-05T18:45:15.772Z,103209.10
2023-02-05T18:47:43.529Z,103211.48
2023-02-05T18:50:11.625Z,103215.93
2023-02-05T18:52:39.345Z,103206.98
2023-02-05T18:55:08.692Z,103225.16
2023-02-05T18:57:36.544Z,103218.12
2023-02-05T19:00:05.553Z,103216.81
2023-02-05T19:02:35.202Z,103225.29
2023-02-05T19:05:03.858Z,103227.25
2023-02-05T19:07:31.589Z,103219.10
2023-02-05T19:10:00.440Z,103219.83
2023-02-05T19:12:28.269Z,103218.98
2023-02-05T19:14:55.951Z,103229.51
2023-02-05T19:17:26.959Z,103228.75
2023-02-05T19:19:55.076Z,103238.37
2023-02-05T19:22:23.166Z,103237.94
2023-02-05T19:24:50.838Z,103246.80
2023-02-05T19:27:19.281Z,103251.28
2023-02-05T19:29:47.001Z,103254.06
2023-02-05T19:32:14.788Z,103252.82
2023-02-05T19:34:44.279Z,103250.01
2023-02-05T19:37:12.462Z,103253.31
2023-02-05T19:39:40.249Z,103257.37
2023-02-05T19:42:08.332Z,103261.45
2023-02-05T19:44:36.062Z,103268.25
2023-02-05T19:47:03.844Z,103282.84
2023-02-05T19:49:31.681Z,103273.87
2023-02-05T19:52:00.938Z,103281.23
2023-02-05T19:54:30.558Z,103276.46
2023-02-05T19:56:58.731Z,103267.50
2023-02-05T19:59:26.676Z,103276.10
2023-02-05T20:01:55.167Z,103276.52
2023-02-05T20:04:29.623Z,103277.80
2023-02-05T20:06:59.851Z,103270.61
2023-02-05T20:09:29.230Z,103261.35
2023-02-05T20:11:56.913Z,103258.51
2023-02-05T20:14:25.637Z,103265.45
2023-02-05T20:16:53.750Z,103261.81
2023-02-05T20:19:21.529Z,103266.72
2023-02-05T20:21:49.857Z,103276.10
2023-02-05T20:24:18.183Z,103267.21
2023-02-05T20:26:49.629Z,103269.30
2023-02-05T20:29:36.242Z,103283.46
2023-02-05T20:32:04.403Z,103279.47
2023-02-05T20:34:35.327Z,103283.10
2023-02-05T20:37:07.004Z,103275.38
2023-02-05T20:39:36.366Z,103266.95
2023-02-05T20:42:04.365Z,103272.63
2023-02-05T20:44:33.443Z,103267.41
2023-02-05T20:47:01.327Z,103276.23
2023-02-05T20:49:29.753Z,103289.12
2023-02-05T20:51:57.643Z,103296.73
2023-02-05T20:54:25.421Z,103293.83
2023-02-05T20:56:58.040Z,103297.75
2023-02-05T20:59:35.713Z,103300.13
2023-02-05T21:02:03.923Z,103300.82
2023-02-05T21:04:32.171Z,103306.45
2023-02-05T21:07:00.112Z,103318.94
2023-02-05T21:09:28.156Z,103331.46
2023-02-05T21:11:56.724Z,103334.73
2023-02-05T21:14:25.012Z,103336.73
2023-02-05T21:16:53.128Z,103342.81
2023-02-05T21:19:21.038Z,103352.59
2023-02-05T21:21:50.827Z,103359.06
2023-02-05T21:24:19.280Z,103361.52
2023-02-05T21:26:49.110Z,103370.48
2023-02-05T21:29:20.795Z,103366.45
2023-02-05T21:31:54.865Z,103369.76
2023-02-05T21:34:25.418Z,103375.87
2023-02-05T21:36:53.936Z,103381.13
2023-02-05T21:39:22.918Z,103383.59
2023-02-05T21:41:55.129Z,103390.09
2023-02-05T21:44:23.266Z,103390.09
2023-02-05T21:46:51.031Z,103391.66
2023-02-05T21:49:18.878Z,103403.77
2023-02-05T21:51:46.882Z,103406.61
2023-02-05T21:54:14.983Z,103402.23
2023-02-05T21:56:44.119Z,103407.03
2023-02-05T21:59:13.436Z,103412.63
2023-02-05T22:01:43.148Z,103406.09
2023-02-05T22:04:16.782Z,103403.63
2023-02-05T22:06:45.312Z,103406.02
2023-02-05T22:09:15.838Z,103414.20
2023-02-05T22:11:44.619Z,103406.97
2023-02-05T22:14:14.094Z,103399.64
2023-02-05T22:16:42.118Z,103400.43
2023-02-05T22:19:10.470Z,103408.15
2023-02-05T22:21:41.259Z,103407.82
2023-02-05T22:24:12.453Z,103404.98
2023-02-05T22:26:40.854Z,103411.84
2023-02-05T22:29:11.686Z,103421.62
2023-02-05T22:31:39.441Z,103418.48
2023-02-05T22:34:07.123Z,103429.04
2023-02-05T22:36:36.066Z,103426.66
2023-02-05T22:39:05.635Z,103423.74
2023-02-05T22:41:38.476Z,103422.53
2023-02-05T22:44:07.645Z,103423.74
2023-02-05T22:46:39.076Z,103426.13
2023-02-05T22:49:07.010Z,103428.12
2023-02-05T22:51:37.716Z,103432.12
2023-02-05T22:54:06.747Z,103430.05
2023-02-05T22:56:36.516Z,103446.24
2023-02-05T22:59:04.181Z,103435.29
2023-02-05T23:01:34.868Z,103450.27
2023-02-05T23:04:04.135Z,103449.09
2023-02-05T23:06:35.048Z,103445.78
2023-02-05T23:09:29.092Z,103442.16
2023-02-05T23:11:56.942Z,103451.41
2023-02-05T23:14:24.790Z,103453.04
2023-02-05T23:16:52.463Z,103448.50
2023-02-05T23:19:23.404Z,103448.50
2023-02-05T23:21:51.278Z,103462.59
2023-02-05T23:26:51.842Z,103480.48
2023-02-05T23:29:20.264Z,103476.85
2023-02-05T23:31:48.312Z,103478.38
2023-02-05T23:34:15.997Z,103474.36
2023-02-05T23:36:43.714Z,103473.16
2023-02-05T23:39:11.724Z,103474.00
2023-02-05T23:41:40.748Z,103490.16
2023-02-05T23:44:21.329Z,103480.87
2023-02-05T23:46:51.111Z,103486.46
2023-02-05T23:49:24.264Z,103494.87
2023-02-05T23:51:54.709Z,103490.06
2023-02-05T23:54:24.245Z,103485.94
2023-02-05T23:56:53.294Z,103484.30
2023-02-05T23:59:21.073Z,103491.53
